Time;durP1;ratioP1;P1;durP2;ratioP2;P2;SDS_P1;SDS_P2;PMS_P1;PMS_P2;Temp;Humidity;BMP_temperature;BMP_pressure;BME280_temperature;BME280_humidity;BME280_pressure;Samples;Min_cycle;Max_cycle;Signal;HPM_P1;HPM_P2
2021/07/03 00:00:46;;;;;;;52.22;35.85;;;14.70;99.90;;;;;;5069883;28;20039;-44
2021/07/03 00:03:11;;;;;;;53.67;35.70;;;14.70;99.90;;;;;;5070745;28;20043;-46
2021/07/03 00:05:37;;;;;;;54.58;37.75;;;14.70;99.90;;;;;;5070379;28;20032;-44
2021/07/03 00:08:03;;;;;;;58.95;37.40;;;14.70;99.90;;;;;;5070622;28;20034;-46
2021/07/03 00:10:29;;;;;;;53.67;35.90;;;14.70;99.90;;;;;;5068281;28;20075;-44
2021/07/03 00:12:54;;;;;;;51.40;34.70;;;14.70;99.90;;;;;;5070381;28;20444;-46
2021/07/03 00:15:21;;;;;;;48.35;32.70;;;14.70;99.90;;;;;;5069221;28;20470;-45
2021/07/03 00:17:51;;;;;;;47.63;32.90;;;14.60;99.90;;;;;;5061734;28;20020;-44
2021/07/03 00:20:17;;;;;;;54.28;33.92;;;14.60;99.90;;;;;;5051604;28;20387;-45
2021/07/03 00:22:43;;;;;;;54.90;35.47;;;14.60;99.90;;;;;;5068868;28;20028;-43
2021/07/03 00:25:09;;;;;;;53.58;35.63;;;14.60;99.90;;;;;;5063365;28;20032;-44
2021/07/03 00:27:35;;;;;;;50.47;34.03;;;14.60;99.90;;;;;;5063697;28;20270;-43
2021/07/03 00:30:01;;;;;;;58.20;35.22;;;14.50;99.90;;;;;;5067838;28;20037;-44
2021/07/03 00:32:26;;;;;;;52.28;35.28;;;14.50;99.90;;;;;;5070154;28;20039;-44
2021/07/03 00:34:52;;;;;;;58.42;37.10;;;14.50;99.90;;;;;;5070304;28;20055;-44
2021/07/03 00:37:18;;;;;;;53.90;35.33;;;14.50;99.90;;;;;;5068554;28;20021;-43
2021/07/03 00:39:43;;;;;;;54.78;33.40;;;14.50;99.90;;;;;;5068986;28;20201;-42
2021/07/03 00:42:10;;;;;;;52.22;34.90;;;14.50;99.90;;;;;;5068404;28;20255;-43
2021/07/03 00:44:39;;;;;;;49.65;32.95;;;14.40;99.90;;;;;;5069728;28;20020;-43
2021/07/03 00:47:06;;;;;;;46.08;31.75;;;14.50;99.90;;;;;;5059628;28;20393;-43
2021/07/03 00:49:34;;;;;;;46.30;32.58;;;14.40;99.90;;;;;;5062105;28;20021;-43
2021/07/03 00:52:01;;;;;;;50.75;34.83;;;14.40;99.90;;;;;;5069812;28;20423;-44
2021/07/03 00:54:30;;;;;;;46.63;31.88;;;14.30;99.90;;;;;;5068745;28;20035;-44
2021/07/03 00:57:02;;;;;;;56.50;36.80;;;14.20;99.90;;;;;;5069464;28;20040;-46
2021/07/03 00:59:44;;;;;;;55.65;36.78;;;14.30;99.90;;;;;;5068852;28;20098;-44
2021/07/03 01:02:12;;;;;;;51.45;34.42;;;14.30;99.90;;;;;;5069444;28;20071;-43
2021/07/03 01:04:37;;;;;;;63.72;37.92;;;14.30;99.90;;;;;;5069572;28;20379;-43
2021/07/03 01:07:05;;;;;;;66.63;40.72;;;14.30;99.90;;;;;;5069548;28;20305;-42
2021/07/03 01:09:30;;;;;;;59.50;37.75;;;14.30;99.90;;;;;;5067243;28;20093;-43
2021/07/03 01:11:56;;;;;;;59.08;37.78;;;14.30;99.90;;;;;;5067898;28;20103;-44
2021/07/03 01:14:22;;;;;;;54.03;35.47;;;14.30;99.90;;;;;;5068955;28;20025;-43
2021/07/03 01:16:48;;;;;;;56.53;37.22;;;14.30;99.90;;;;;;5061460;28;20550;-44
2021/07/03 01:19:14;;;;;;;61.53;38.58;;;14.30;99.90;;;;;;5059895;28;20120;-44
2021/07/03 01:21:40;;;;;;;59.88;38.42;;;14.30;99.90;;;;;;5069027;28;20042;-44
2021/07/03 01:24:06;;;;;;;52.78;35.13;;;14.30;99.90;;;;;;5067659;28;20430;-44
2021/07/03 01:26:46;;;;;;;56.30;36.88;;;14.30;99.90;;;;;;5068875;28;20486;-44
2021/07/03 01:29:13;;;;;;;62.70;36.70;;;14.30;99.90;;;;;;5068355;28;20016;-44
2021/07/03 01:31:43;;;;;;;57.38;36.05;;;14.20;99.90;;;;;;5068718;28;20565;-44
2021/07/03 01:34:09;;;;;;;62.97;38.80;;;14.30;99.90;;;;;;5068853;28;20028;-44
2021/07/03 01:36:36;;;;;;;54.55;36.47;;;14.20;99.90;;;;;;5068822;28;20505;-43
2021/07/03 01:39:06;;;;;;;59.97;37.30;;;14.20;99.90;;;;;;5068739;28;20086;-44
2021/07/03 01:41:32;;;;;;;57.83;36.75;;;14.20;99.90;;;;;;5068639;28;20029;-45
2021/07/03 01:43:57;;;;;;;47.70;33.47;;;14.20;99.90;;;;;;5068833;28;20558;-43
2021/07/03 01:46:23;;;;;;;51.72;35.35;;;14.20;99.90;;;;;;5051737;28;20028;-43
2021/07/03 01:48:49;;;;;;;48.88;34.30;;;14.20;99.90;;;;;;5060251;28;20035;-43
2021/07/03 01:51:14;;;;;;;48.47;32.53;;;14.20;99.90;;;;;;5068208;28;20470;-43
2021/07/03 01:53:40;;;;;;;50.72;34.45;;;14.20;99.90;;;;;;5068962;28;20024;-46
2021/07/03 01:56:09;;;;;;;56.00;37.40;;;14.10;99.90;;;;;;5068872;28;20032;-43
2021/07/03 01:58:35;;;;;;;51.80;34.90;;;14.20;99.90;;;;;;5068635;28;20020;-44
2021/07/03 02:01:03;;;;;;;61.90;37.30;;;14.20;99.90;;;;;;5067679;28;20401;-44
2021/07/03 02:03:29;;;;;;;53.40;34.70;;;14.20;99.90;;;;;;5068689;28;20024;-46
2021/07/03 02:05:55;;;;;;;56.67;35.15;;;14.10;99.90;;;;;;5068387;28;20020;-43
2021/07/03 02:08:21;;;;;;;53.10;34.15;;;14.10;99.90;;;;;;5067202;28;20206;-44
2021/07/03 02:10:47;;;;;;;59.97;36.47;;;14.10;99.90;;;;;;5067419;28;20028;-44
2021/07/03 02:13:12;;;;;;;56.30;33.88;;;14.10;99.90;;;;;;5068452;28;20028;-44
2021/07/03 02:15:38;;;;;;;47.50;33.35;;;14.10;99.90;;;;;;5060570;28;20036;-44
2021/07/03 02:18:04;;;;;;;52.47;33.72;;;14.10;99.90;;;;;;5054806;28;20021;-44
2021/07/03 02:20:31;;;;;;;47.03;31.55;;;14.10;99.90;;;;;;5067650;28;20051;-45
2021/07/03 02:22:57;;;;;;;44.15;30.95;;;14.00;99.90;;;;;;5068162;28;20035;-43
2021/07/03 02:25:23;;;;;;;46.08;31.48;;;14.00;99.90;;;;;;5066182;28;20017;-44
2021/07/03 02:27:49;;;;;;;57.45;35.10;;;13.90;99.90;;;;;;5059811;28;20028;-45
2021/07/03 02:30:16;;;;;;;52.67;35.67;;;13.90;99.90;;;;;;5066284;28;20074;-43
2021/07/03 02:32:42;;;;;;;53.50;35.00;;;14.00;99.90;;;;;;5068099;28;20029;-43
2021/07/03 02:35:09;;;;;;;48.70;31.95;;;14.00;99.90;;;;;;5066799;28;20877;-44
2021/07/03 02:37:35;;;;;;;44.15;30.95;;;13.90;99.90;;;;;;5051768;28;20021;-44
2021/07/03 02:40:02;;;;;;;42.15;29.65;;;13.90;99.90;;;;;;5057638;28;20532;-43
2021/07/03 02:42:27;;;;;;;49.47;33.35;;;13.80;99.90;;;;;;5065704;28;20086;-44
2021/07/03 02:44:53;;;;;;;48.85;34.05;;;13.80;99.90;;;;;;5059648;28;20025;-43
2021/07/03 02:47:18;;;;;;;49.08;34.25;;;13.80;99.90;;;;;;5068014;28;20028;-44
2021/07/03 02:49:43;;;;;;;47.63;31.95;;;13.80;99.90;;;;;;5067810;28;20036;-43
2021/07/03 02:52:09;;;;;;;47.22;32.25;;;13.70;99.90;;;;;;5066696;28;20684;-44
2021/07/03 02:54:34;;;;;;;50.30;34.08;;;13.70;99.90;;;;;;5067869;28;20067;-45
2021/07/03 02:57:00;;;;;;;52.67;33.60;;;13.70;99.90;;;;;;5066892;28;20123;-44
2021/07/03 02:59:26;;;;;;;49.80;33.47;;;13.70;99.90;;;;;;5065976;28;20024;-44
2021/07/03 03:01:52;;;;;;;56.88;36.50;;;13.70;99.90;;;;;;5068081;28;20340;-43
2021/07/03 03:04:18;;;;;;;53.72;33.55;;;13.70;99.90;;;;;;5067924;28;20032;-43
2021/07/03 03:06:44;;;;;;;57.72;34.13;;;13.70;99.90;;;;;;5067872;28;20048;-45
2021/07/03 03:09:10;;;;;;;53.05;33.05;;;13.80;99.90;;;;;;5067045;28;20028;-44
2021/07/03 03:11:35;;;;;;;44.90;30.27;;;13.70;99.90;;;;;;5067482;28;20135;-44
2021/07/03 03:14:01;;;;;;;40.08;28.95;;;13.70;99.90;;;;;;5061951;28;20058;-44
2021/07/03 03:16:27;;;;;;;47.22;31.30;;;13.60;99.90;;;;;;5060203;28;20055;-43
2021/07/03 03:18:54;;;;;;;48.40;30.77;;;13.60;99.90;;;;;;5070438;28;20035;-43
2021/07/03 03:21:19;;;;;;;49.97;31.70;;;13.70;99.90;;;;;;5052643;28;20074;-45
2021/07/03 03:23:45;;;;;;;47.83;31.33;;;13.60;99.90;;;;;;5066603;28;20040;-44
2021/07/03 03:26:10;;;;;;;43.25;30.63;;;13.50;99.90;;;;;;5071628;28;20074;-43
2021/07/03 03:28:36;;;;;;;38.13;27.55;;;13.50;99.90;;;;;;5071592;28;20066;-43
2021/07/03 03:31:02;;;;;;;43.25;30.60;;;13.50;99.90;;;;;;5070654;28;20467;-44
2021/07/03 03:33:28;;;;;;;53.10;34.03;;;13.50;99.90;;;;;;5071276;28;20440;-44
2021/07/03 03:35:53;;;;;;;48.85;31.83;;;13.50;99.90;;;;;;5071120;28;20047;-43
2021/07/03 03:38:19;;;;;;;54.58;33.65;;;13.60;99.90;;;;;;5069640;28;20521;-45
2021/07/03 03:40:44;;;;;;;56.88;35.50;;;13.50;99.90;;;;;;5053235;28;20181;-43
2021/07/03 03:43:10;;;;;;;52.03;32.67;;;13.60;99.90;;;;;;5060918;28;20024;-42
2021/07/03 03:45:36;;;;;;;54.63;35.00;;;13.60;99.90;;;;;;5070793;28;20028;-45
2021/07/03 03:48:04;;;;;;;50.00;31.10;;;13.60;99.90;;;;;;5055204;28;20096;-48
2021/07/03 03:50:29;;;;;;;50.92;33.75;;;13.70;99.90;;;;;;5050036;28;20464;-45
2021/07/03 03:52:55;;;;;;;50.53;34.38;;;13.70;99.90;;;;;;5050836;28;20479;-46
2021/07/03 03:55:21;;;;;;;47.25;30.95;;;13.80;99.90;;;;;;5050621;28;20056;-47
2021/07/03 03:57:46;;;;;;;51.15;31.77;;;13.80;99.90;;;;;;5050712;28;20033;-46
2021/07/03 04:00:12;;;;;;;46.00;30.10;;;13.90;99.90;;;;;;5048715;28;20425;-46
2021/07/03 04:02:38;;;;;;;55.45;33.72;;;13.90;99.90;;;;;;5038663;28;20036;-47
2021/07/03 04:05:04;;;;;;;52.90;32.50;;;13.90;99.90;;;;;;5039624;28;20025;-48
2021/07/03 04:07:30;;;;;;;47.35;31.20;;;13.90;99.90;;;;;;5039238;28;20030;-48
2021/07/03 04:09:56;;;;;;;47.00;31.02;;;14.00;99.90;;;;;;5038623;28;20452;-50
2021/07/03 04:12:21;;;;;;;50.20;31.77;;;14.00;99.90;;;;;;5045535;28;20077;-46
2021/07/03 04:14:47;;;;;;;45.38;29.13;;;14.10;99.90;;;;;;5039781;28;20045;-46
2021/07/03 04:17:12;;;;;;;48.55;29.63;;;14.10;99.90;;;;;;5046644;28;20106;-47
2021/07/03 04:19:39;;;;;;;48.97;28.48;;;14.10;99.90;;;;;;5046703;28;20027;-46
2021/07/03 04:22:04;;;;;;;46.75;29.13;;;14.20;99.90;;;;;;5048026;28;20104;-45
2021/07/03 04:24:30;;;;;;;43.05;29.77;;;14.20;99.90;;;;;;5047827;28;20589;-46
2021/07/03 04:26:55;;;;;;;49.30;28.67;;;14.30;99.90;;;;;;5041428;28;20493;-47
2021/07/03 04:29:21;;;;;;;43.38;27.90;;;14.30;99.90;;;;;;5045636;28;20056;-48
2021/07/03 04:31:46;;;;;;;41.33;28.35;;;14.30;99.90;;;;;;5043644;28;20024;-45
2021/07/03 04:34:12;;;;;;;45.08;29.23;;;14.30;99.90;;;;;;5043158;28;20041;-45
2021/07/03 04:36:38;;;;;;;40.90;28.15;;;14.40;99.90;;;;;;5045683;28;20059;-48
2021/07/03 04:39:03;;;;;;;39.45;27.85;;;14.50;99.90;;;;;;5045369;28;20030;-45
2021/07/03 04:41:29;;;;;;;38.92;26.52;;;14.50;99.90;;;;;;5044677;28;20025;-45
2021/07/03 04:43:55;;;;;;;37.33;26.17;;;14.50;99.90;;;;;;5045693;28;20116;-47
2021/07/03 04:46:20;;;;;;;38.63;25.45;;;14.50;99.90;;;;;;5044887;28;20033;-45
2021/07/03 04:48:46;;;;;;;37.25;25.40;;;14.60;99.90;;;;;;5036334;28;20021;-48
2021/07/03 04:51:11;;;;;;;44.15;26.67;;;14.60;99.90;;;;;;5033611;28;20080;-45
2021/07/03 04:53:37;;;;;;;35.90;25.40;;;14.70;99.90;;;;;;5032420;28;20022;-45
2021/07/03 04:56:03;;;;;;;38.15;26.35;;;14.80;99.90;;;;;;5032204;28;20467;-45
2021/07/03 04:58:28;;;;;;;43.00;26.95;;;14.90;99.90;;;;;;5032543;28;20491;-45
2021/07/03 05:00:54;;;;;;;36.03;25.35;;;14.90;99.90;;;;;;5031493;28;20052;-45
2021/07/03 05:03:19;;;;;;;34.05;23.35;;;15.10;99.90;;;;;;5030497;28;20025;-45
2021/07/03 05:05:45;;;;;;;38.92;25.85;;;15.20;99.90;;;;;;5032062;28;20142;-46
2021/07/03 05:08:11;;;;;;;34.03;24.13;;;15.20;99.90;;;;;;5037964;28;20033;-47
2021/07/03 05:10:36;;;;;;;37.30;24.45;;;15.30;99.90;;;;;;5041668;28;20387;-46
2021/07/03 05:13:02;;;;;;;33.65;23.00;;;15.40;99.90;;;;;;5036592;28;20475;-46
2021/07/03 05:15:28;;;;;;;34.63;23.83;;;15.50;99.90;;;;;;5029294;28;20151;-47
2021/07/03 05:17:53;;;;;;;34.22;22.25;;;15.60;99.90;;;;;;5044358;28;20104;-47
2021/07/03 05:20:19;;;;;;;33.25;22.75;;;15.70;99.90;;;;;;5058614;28;20032;-47
2021/07/03 05:22:44;;;;;;;33.03;21.77;;;15.80;99.90;;;;;;5069250;28;20478;-45
2021/07/03 05:25:11;;;;;;;28.73;21.20;;;15.80;99.90;;;;;;5067739;28;20135;-46
2021/07/03 05:27:37;;;;;;;27.85;21.05;;;16.00;99.90;;;;;;5047653;28;20115;-46
2021/07/03 05:30:04;;;;;;;34.58;23.13;;;16.00;99.90;;;;;;5051223;28;20571;-46
2021/07/03 05:32:29;;;;;;;30.05;20.98;;;16.10;99.90;;;;;;5045861;28;20233;-48
2021/07/03 05:34:55;;;;;;;31.05;21.00;;;16.10;99.90;;;;;;5038471;28;20017;-46
2021/07/03 05:37:20;;;;;;;24.58;19.45;;;16.20;99.90;;;;;;5039227;28;20414;-46
2021/07/03 05:39:46;;;;;;;29.42;20.80;;;16.30;99.90;;;;;;5036293;28;20030;-46
2021/07/03 05:42:11;;;;;;;31.58;20.52;;;16.30;99.90;;;;;;5042084;28;20025;-46
2021/07/03 05:44:37;;;;;;;31.98;21.00;;;16.40;99.90;;;;;;5048877;28;20159;-47
2021/07/03 05:47:03;;;;;;;27.60;20.77;;;16.50;99.90;;;;;;5048063;28;20071;-46
2021/07/03 05:49:28;;;;;;;29.25;20.08;;;16.50;99.90;;;;;;5059513;28;20020;-46
2021/07/03 05:51:54;;;;;;;29.88;20.92;;;16.60;99.90;;;;;;5067446;28;20070;-45
2021/07/03 05:54:19;;;;;;;30.25;19.67;;;16.50;99.90;;;;;;5068632;28;20483;-45
2021/07/03 05:56:45;;;;;;;30.65;20.13;;;16.60;99.90;;;;;;5068660;28;20025;-45
2021/07/03 05:59:11;;;;;;;26.15;19.13;;;16.60;99.90;;;;;;5067759;28;20032;-46
2021/07/03 06:01:36;;;;;;;25.50;18.40;;;16.70;99.90;;;;;;5067322;28;20025;-46
2021/07/03 06:04:02;;;;;;;23.70;17.52;;;16.80;99.90;;;;;;5068452;28;20032;-46
2021/07/03 06:06:27;;;;;;;27.70;19.27;;;16.90;99.90;;;;;;5068393;28;20028;-46
2021/07/03 06:08:53;;;;;;;23.38;17.13;;;16.80;99.90;;;;;;5039223;28;20036;-46
2021/07/03 06:11:19;;;;;;;27.23;19.48;;;16.90;99.90;;;;;;5032310;28;20092;-46
2021/07/03 06:13:44;;;;;;;22.15;17.83;;;16.90;99.90;;;;;;5041636;28;20382;-46
2021/07/03 06:16:10;;;;;;;27.70;19.13;;;16.80;99.90;;;;;;5041512;28;20167;-46
2021/07/03 06:18:35;;;;;;;30.92;21.48;;;16.90;99.90;;;;;;5037541;28;20108;-46
2021/07/03 06:21:01;;;;;;;27.88;19.92;;;17.00;99.90;;;;;;5044449;28;20033;-46
2021/07/03 06:23:27;;;;;;;26.88;19.63;;;17.00;99.90;;;;;;5033570;28;20033;-47
2021/07/03 06:25:54;;;;;;;27.70;19.30;;;17.10;99.90;;;;;;5028810;28;20021;-46
2021/07/03 06:28:20;;;;;;;26.02;18.80;;;17.30;99.90;;;;;;5028517;28;20028;-49
2021/07/03 06:30:46;;;;;;;33.30;20.15;;;17.40;99.90;;;;;;5028502;28;20021;-46
2021/07/03 06:33:12;;;;;;;29.75;19.92;;;17.50;99.90;;;;;;5028015;28;20033;-47
2021/07/03 06:35:37;;;;;;;30.23;20.23;;;17.70;99.90;;;;;;5028084;28;20399;-47
2021/07/03 06:38:04;;;;;;;32.42;20.88;;;17.80;99.90;;;;;;5029974;28;20021;-46
2021/07/03 06:40:30;;;;;;;27.45;19.58;;;17.80;99.90;;;;;;5047255;28;20513;-47
2021/07/03 06:42:58;;;;;;;26.13;17.88;;;17.70;99.90;;;;;;5046330;28;20029;-45
2021/07/03 06:45:24;;;;;;;33.78;20.02;;;17.80;99.90;;;;;;5047866;28;20035;-48
2021/07/03 06:47:49;;;;;;;30.38;21.05;;;17.90;99.90;;;;;;5047814;28;20526;-48
2021/07/03 06:50:14;;;;;;;26.15;19.10;;;17.80;99.90;;;;;;5047212;28;20494;-47
2021/07/03 06:52:40;;;;;;;26.33;18.50;;;17.80;99.90;;;;;;5048526;28;20044;-47
2021/07/03 06:55:06;;;;;;;32.25;21.70;;;17.90;99.90;;;;;;5049520;28;20082;-49
2021/07/03 06:57:32;;;;;;;24.33;17.95;;;17.90;99.90;;;;;;5044683;28;20020;-48
2021/07/03 06:59:57;;;;;;;30.73;20.00;;;18.00;99.90;;;;;;5040532;28;20022;-46
2021/07/03 07:02:23;;;;;;;25.85;18.00;;;18.20;99.90;;;;;;5044952;28;20382;-47
2021/07/03 07:04:48;;;;;;;24.55;17.98;;;18.30;99.90;;;;;;5046637;28;20028;-46
2021/07/03 07:07:14;;;;;;;29.00;18.30;;;18.50;99.90;;;;;;5042244;28;20022;-46
2021/07/03 07:09:40;;;;;;;25.33;17.92;;;18.70;99.90;;;;;;5040466;28;20017;-47
2021/07/03 07:12:05;;;;;;;21.73;16.65;;;18.80;99.90;;;;;;5040240;28;20065;-47
2021/07/03 07:14:31;;;;;;;22.15;16.52;;;19.10;99.90;;;;;;5037315;28;20039;-46
2021/07/03 07:16:56;;;;;;;25.70;15.82;;;19.10;99.90;;;;;;5034830;28;20084;-46
2021/07/03 07:19:22;;;;;;;22.65;17.08;;;19.30;99.90;;;;;;5049211;28;20484;-46
2021/07/03 07:21:48;;;;;;;24.65;15.75;;;19.50;99.90;;;;;;5066573;28;20074;-46
2021/07/03 07:24:14;;;;;;;24.77;16.20;;;19.70;99.90;;;;;;5071282;28;20540;-47
2021/07/03 07:26:39;;;;;;;29.65;19.75;;;19.90;99.90;;;;;;5069765;28;20028;-46
2021/07/03 07:29:05;;;;;;;27.08;18.15;;;20.00;99.90;;;;;;5065803;28;20438;-50
2021/07/03 07:31:31;;;;;;;23.88;16.67;;;20.10;99.90;;;;;;5062267;28;20033;-48
2021/07/03 07:33:57;;;;;;;26.42;16.48;;;20.10;99.90;;;;;;5069913;28;20082;-48
2021/07/03 07:36:23;;;;;;;18.77;14.68;;;20.10;99.90;;;;;;5070358;28;20504;-46
2021/07/03 07:38:48;;;;;;;18.98;14.48;;;20.30;99.90;;;;;;5071005;28;20016;-47
2021/07/03 07:41:18;;;;;;;21.20;16.00;;;20.30;99.90;;;;;;5070112;28;20143;-47
2021/07/03 07:43:43;;;;;;;21.00;15.07;;;20.40;99.90;;;;;;5070959;28;20027;-46
2021/07/03 07:46:10;;;;;;;20.80;15.65;;;20.50;99.90;;;;;;5070606;28;20033;-48
2021/07/03 07:48:36;;;;;;;23.25;15.75;;;20.60;99.90;;;;;;5063388;28;20056;-47
2021/07/03 07:51:01;;;;;;;23.88;16.05;;;20.70;99.90;;;;;;5061766;28;20075;-49
2021/07/03 07:53:28;;;;;;;24.30;16.77;;;21.10;99.90;;;;;;5069426;28;20067;-46
2021/07/03 07:55:55;;;;;;;22.30;15.50;;;21.30;99.90;;;;;;5071043;28;20517;-50
2021/07/03 07:58:20;;;;;;;23.50;16.95;;;21.40;99.90;;;;;;5070916;28;20025;-45
2021/07/03 08:00:46;;;;;;;20.52;15.85;;;21.20;99.90;;;;;;5070298;28;20111;-46
2021/07/03 08:03:12;;;;;;;21.23;15.35;;;21.10;99.90;;;;;;5070564;28;20501;-46
2021/07/03 08:05:37;;;;;;;22.25;15.60;;;21.20;99.90;;;;;;5070954;28;20503;-47
2021/07/03 08:08:06;;;;;;;21.73;15.80;;;21.50;99.90;;;;;;5070918;28;20102;-49
2021/07/03 08:10:36;;;;;;;23.45;16.77;;;21.90;99.90;;;;;;5069582;28;20040;-46
2021/07/03 08:13:02;;;;;;;21.70;14.75;;;21.80;99.90;;;;;;5070353;28;20378;-48
2021/07/03 08:15:28;;;;;;;18.20;13.13;;;21.90;99.90;;;;;;5070138;28;20024;-45
2021/07/03 08:17:54;;;;;;;20.63;14.95;;;22.20;99.90;;;;;;5052335;28;20028;-46
2021/07/03 08:20:21;;;;;;;21.25;14.63;;;22.60;99.90;;;;;;5060377;28;20021;-47
2021/07/03 08:22:49;;;;;;;16.63;12.35;;;22.70;99.90;;;;;;5050038;28;20128;-46
2021/07/03 08:25:15;;;;;;;17.30;13.82;;;23.70;99.90;;;;;;5048679;28;20482;-49
2021/07/03 08:27:41;;;;;;;20.02;14.38;;;24.60;99.90;;;;;;5038655;28;20029;-48
2021/07/03 08:30:08;;;;;;;15.07;11.15;;;25.90;97.40;;;;;;5032579;28;20032;-48
2021/07/03 08:32:34;;;;;;;12.85;10.43;;;26.20;96.60;;;;;;5040087;28;20020;-47
2021/07/03 08:34:59;;;;;;;12.90;11.43;;;25.90;95.90;;;;;;5061575;28;20047;-47
2021/07/03 08:37:25;;;;;;;14.40;11.63;;;26.20;95.10;;;;;;5070166;28;20267;-47
2021/07/03 08:39:50;;;;;;;12.98;9.95;;;26.40;94.20;;;;;;5069169;28;20097;-48
2021/07/03 08:42:16;;;;;;;14.50;10.07;;;26.40;93.10;;;;;;5069849;28;20505;-48
2021/07/03 08:44:49;;;;;;;11.15;9.18;;;26.20;93.30;;;;;;5069731;28;20059;-46
2021/07/03 08:47:16;;;;;;;13.80;10.15;;;26.40;93.30;;;;;;5069823;28;20055;-47
2021/07/03 08:49:49;;;;;;;14.95;9.20;;;25.90;92.10;;;;;;5062708;28;20089;-46
2021/07/03 08:52:14;;;;;;;12.73;9.77;;;26.00;93.10;;;;;;5059915;28;20024;-46
2021/07/03 08:54:40;;;;;;;12.50;10.02;;;25.90;91.70;;;;;;5030941;28;20168;-46
2021/07/03 08:57:05;;;;;;;13.57;9.68;;;26.00;92.00;;;;;;5029632;28;20022;-47
2021/07/03 08:59:31;;;;;;;16.27;10.90;;;25.50;92.00;;;;;;5028396;28;20038;-46
2021/07/03 09:01:59;;;;;;;10.23;8.43;;;25.60;90.30;;;;;;5029458;28;20403;-46
2021/07/03 09:04:33;;;;;;;10.95;7.88;;;25.10;91.90;;;;;;5027086;28;20314;-46
2021/07/03 09:07:13;;;;;;;12.40;9.45;;;25.00;91.20;;;;;;5028458;28;20032;-47
2021/07/03 09:09:38;;;;;;;12.23;7.88;;;24.90;91.60;;;;;;5030254;28;20035;-48
2021/07/03 09:12:04;;;;;;;14.82;8.60;;;25.10;92.20;;;;;;5035727;28;20548;-47
2021/07/03 09:14:30;;;;;;;19.52;9.82;;;24.80;90.90;;;;;;5037341;28;20017;-47
2021/07/03 09:16:59;;;;;;;13.75;9.43;;;24.80;91.20;;;;;;5036565;28;20028;-47
2021/07/03 09:19:29;;;;;;;15.40;11.40;;;24.60;92.40;;;;;;5039567;28;20012;-46
2021/07/03 09:21:55;;;;;;;;;;;24.30;94.10;;;;;;5054195;28;20039;-46
2021/07/03 09:24:21;;;;;;;15.35;11.45;;;23.70;95.10;;;;;;5069346;28;19912;-47
2021/07/03 09:27:04;;;;;;;17.73;11.82;;;24.10;95.00;;;;;;5040060;28;20029;-47
2021/07/03 09:29:29;;;;;;;13.00;9.63;;;24.20;95.30;;;;;;5037929;28;20517;-45
2021/07/03 09:32:05;;;;;;;14.80;10.10;;;24.90;94.80;;;;;;5036301;28;20037;-48
2021/07/03 09:34:30;;;;;;;14.82;10.95;;;25.00;93.60;;;;;;5037010;28;20030;-47
2021/07/03 09:37:03;;;;;;;12.88;9.70;;;26.10;90.70;;;;;;5036617;28;20387;-47
2021/07/03 09:39:29;;;;;;;9.27;7.88;;;27.30;90.60;;;;;;5039399;28;20032;-47
2021/07/03 09:41:54;;;;;;;9.68;7.75;;;28.40;87.10;;;;;;5037046;28;20037;-50
2021/07/03 09:44:19;;;;;;;10.18;8.77;;;29.30;83.40;;;;;;5035176;28;20123;-49
2021/07/03 09:46:51;;;;;;;9.13;8.23;;;29.60;76.60;;;;;;5034587;28;20112;-48
2021/07/03 09:49:22;;;;;;;8.57;6.30;;;29.80;78.00;;;;;;5036891;28;20025;-47
2021/07/03 09:51:55;;;;;;;15.50;10.45;;;29.50;76.50;;;;;;5042222;28;20070;-47
2021/07/03 09:54:22;;;;;;;9.35;8.05;;;29.10;73.10;;;;;;5038141;28;20017;-46
2021/07/03 09:56:58;;;;;;;15.45;11.93;;;28.60;76.70;;;;;;5037431;28;20045;-47
2021/07/03 09:59:28;;;;;;;11.77;10.00;;;28.60;76.30;;;;;;5045338;28;20123;-46
2021/07/03 10:01:53;;;;;;;12.02;9.32;;;28.50;76.60;;;;;;5049044;28;20456;-46
2021/07/03 10:04:19;;;;;;;9.20;7.22;;;28.50;78.80;;;;;;5048235;28;20074;-46
2021/07/03 10:07:04;;;;;;;10.70;8.05;;;29.00;77.10;;;;;;5048354;28;20043;-49
2021/07/03 10:09:34;;;;;;;9.77;7.65;;;30.20;75.60;;;;;;5047731;28;20086;-48
2021/07/03 10:12:08;;;;;;;11.27;8.48;;;30.70;69.00;;;;;;5038592;28;20490;-46
2021/07/03 10:14:39;;;;;;;11.55;8.57;;;29.70;71.40;;;;;;5036522;28;20021;-46
2021/07/03 10:17:05;;;;;;;10.88;8.45;;;28.70;71.00;;;;;;5037949;28;20022;-48
2021/07/03 10:19:36;;;;;;;10.82;9.00;;;28.10;75.50;;;;;;5036753;28;20078;-46
2021/07/03 10:22:11;;;;;;;11.32;7.85;;;28.70;72.60;;;;;;5031825;28;20271;-46
2021/07/03 10:24:43;;;;;;;8.38;6.50;;;30.10;72.80;;;;;;5035711;28;20040;-48
2021/07/03 10:27:35;;;;;;;11.07;8.20;;;31.30;71.30;;;;;;5041886;28;20029;-47
2021/07/03 10:30:05;;;;;;;9.52;7.00;;;32.00;68.90;;;;;;5039704;28;20033;-47
2021/07/03 10:32:33;;;;;;;7.90;7.18;;;31.70;67.50;;;;;;5038794;28;21095;-47
2021/07/03 10:35:18;;;;;;;10.50;7.47;;;32.60;64.20;;;;;;5043281;28;20045;-47
2021/07/03 10:37:43;;;;;;;8.90;6.78;;;33.10;63.80;;;;;;5042833;28;20017;-47
2021/07/03 10:40:22;;;;;;;10.20;7.35;;;32.20;61.20;;;;;;5042262;28;20032;-48
2021/07/03 10:42:49;;;;;;;8.27;7.32;;;31.50;63.60;;;;;;5042755;28;20542;-46
2021/07/03 10:45:23;;;;;;;8.70;6.80;;;31.90;62.90;;;;;;5060837;28;20501;-50
2021/07/03 10:47:54;;;;;;;8.05;6.85;;;32.70;62.30;;;;;;5072067;28;20384;-48
2021/07/03 10:50:28;;;;;;;8.60;6.85;;;33.00;57.40;;;;;;5063898;28;20032;-49
2021/07/03 10:52:55;;;;;;;8.48;7.22;;;33.10;58.70;;;;;;5068062;28;20033;-49
2021/07/03 10:55:31;;;;;;;7.88;7.00;;;32.70;59.00;;;;;;5071834;28;20020;-48
2021/07/03 10:57:59;;;;;;;9.68;8.13;;;33.10;62.90;;;;;;5070470;28;20020;-49
2021/07/03 11:00:25;;;;;;;8.52;6.80;;;33.30;55.40;;;;;;5071313;28;20517;-50
2021/07/03 11:02:51;;;;;;;6.88;6.25;;;33.60;55.50;;;;;;5042756;28;20029;-49
2021/07/03 11:05:18;;;;;;;9.10;5.88;;;33.30;56.70;;;;;;5047819;28;20127;-48
2021/07/03 11:07:47;;;;;;;6.25;5.65;;;33.70;53.60;;;;;;5040689;28;20083;-47
2021/07/03 11:10:16;;;;;;;11.95;6.15;;;33.30;56.30;;;;;;5039712;28;20033;-50
2021/07/03 11:12:44;;;;;;;6.85;6.13;;;33.30;57.40;;;;;;5039465;28;20431;-49
2021/07/03 11:15:12;;;;;;;9.32;7.88;;;32.60;58.80;;;;;;5040832;28;20040;-49
2021/07/03 11:17:37;;;;;;;7.53;6.78;;;31.60;59.00;;;;;;5033512;28;20502;-50
2021/07/03 11:20:03;;;;;;;7.57;6.40;;;30.60;61.90;;;;;;5037814;28;20028;-49
2021/07/03 11:22:28;;;;;;;8.70;7.30;;;31.20;63.30;;;;;;5042483;28;20108;-47
2021/07/03 11:24:56;;;;;;;11.40;8.02;;;31.40;61.20;;;;;;5035237;28;20021;-47
2021/07/03 11:27:41;;;;;;;9.73;7.90;;;31.70;59.30;;;;;;5037001;28;20037;-50
2021/07/03 11:30:18;;;;;;;7.75;6.93;;;31.40;59.60;;;;;;5044527;28;20487;-47
2021/07/03 11:32:55;;;;;;;9.52;6.47;;;32.00;57.80;;;;;;5039998;28;20040;-49
2021/07/03 11:35:22;;;;;;;6.32;5.47;;;32.50;58.00;;;;;;5035053;28;20025;-48
2021/07/03 11:37:47;;;;;;;10.13;6.45;;;33.10;57.50;;;;;;5045587;28;20432;-47
2021/07/03 11:40:20;;;;;;;7.47;5.57;;;32.20;56.70;;;;;;5042119;28;20047;-46
2021/07/03 11:42:49;;;;;;;10.05;6.93;;;31.60;58.50;;;;;;5040806;28;20021;-48
2021/07/03 11:45:17;;;;;;;10.95;5.93;;;30.60;59.90;;;;;;5036203;28;20022;-47
2021/07/03 11:47:47;;;;;;;8.45;7.45;;;30.90;63.80;;;;;;5034362;28;20084;-47
2021/07/03 11:50:38;;;;;;;9.38;6.20;;;31.20;58.40;;;;;;5037258;28;20022;-49
2021/07/03 11:53:05;;;;;;;9.70;5.95;;;31.90;58.50;;;;;;5036866;28;20060;-47
2021/07/03 11:55:38;;;;;;;8.02;6.55;;;32.50;57.60;;;;;;5037668;28;20030;-46
2021/07/03 11:58:05;;;;;;;8.70;6.00;;;32.70;55.20;;;;;;5038701;28;20045;-47
2021/07/03 12:00:35;;;;;;;7.85;6.30;;;32.70;56.60;;;;;;5042915;28;20116;-47
2021/07/03 12:03:02;;;;;;;9.43;6.13;;;31.80;54.60;;;;;;5038600;28;20033;-48
2021/07/03 12:05:34;;;;;;;6.82;6.00;;;31.80;56.20;;;;;;5044073;28;20032;-48
2021/07/03 12:08:02;;;;;;;9.45;6.13;;;32.10;58.00;;;;;;5033523;28;20022;-47
2021/07/03 12:10:33;;;;;;;7.78;6.22;;;31.40;58.20;;;;;;5029621;28;20060;-47
2021/07/03 12:12:58;;;;;;;11.23;7.50;;;30.50;58.30;;;;;;5030542;28;20028;-47
2021/07/03 12:15:28;;;;;;;9.45;6.63;;;30.00;58.10;;;;;;5038374;28;20032;-48
2021/07/03 12:17:53;;;;;;;8.30;5.53;;;29.80;60.40;;;;;;5043000;28;20014;-48
2021/07/03 12:20:20;;;;;;;7.90;7.10;;;30.20;63.90;;;;;;5043535;28;20186;-49
2021/07/03 12:22:56;;;;;;;10.38;6.15;;;29.60;60.60;;;;;;5045300;28;20071;-47
2021/07/03 12:25:23;;;;;;;8.90;6.30;;;29.90;63.30;;;;;;5044332;28;20052;-46
2021/07/03 12:28:04;;;;;;;7.82;6.05;;;29.60;62.00;;;;;;5039445;28;20075;-49
2021/07/03 12:30:30;;;;;;;8.38;6.10;;;29.20;61.50;;;;;;5040319;28;20025;-47